sensor_id;sensor_type;location;lat;lon;timestamp;temperature;humidity
10143;DHT22;5112;54.088;13.446;2024-03-23T00:58:24;7.30;99.90
10143;DHT22;5112;54.088;13.446;2024-03-23T01:08:26;7.30;99.90
10143;DHT22;5112;54.088;13.446;2024-03-23T01:18:29;7.20;99.90
10143;DHT22;5112;54.088;13.446;2024-03-23T01:28:31;7.20;99.90
10143;DHT22;5112;54.088;13.446;2024-03-23T01:38:33;7.20;99.90
10143;DHT22;5112;54.088;13.446;2024-03-23T01:48:37;7.20;99.90
10143;DHT22;5112;54.088;13.446;2024-03-23T01:58:40;7.10;99.90
10143;DHT22;5112;54.088;13.446;2024-03-23T02:08:41;7.10;99.90
10143;DHT22;5112;54.088;13.446;2024-03-23T02:18:46;7.00;99.90
10143;DHT22;5112;54.088;13.446;2024-03-23T02:28:49;7.00;99.90
10143;DHT22;5112;54.088;13.446;2024-03-23T02:38:51;6.90;99.90
10143;DHT22;5112;54.088;13.446;2024-03-23T02:48:54;6.90;99.90
10143;DHT22;5112;54.088;13.446;2024-03-23T02:58:57;6.80;99.90
10143;DHT22;5112;54.088;13.446;2024-03-23T03:09:00;6.80;99.90
10143;DHT22;5112;54.088;13.446;2024-03-23T03:19:01;6.70;99.90
10143;DHT22;5112;54.088;13.446;2024-03-23T03:29:05;6.70;99.90
10143;DHT22;5112;54.088;13.446;2024-03-23T03:39:06;6.70;99.90
10143;DHT22;5112;54.088;13.446;2024-03-23T03:49:10;6.60;99.90
10143;DHT22;5112;54.088;13.446;2024-03-23T03:59:11;6.50;99.90
10143;DHT22;5112;54.088;13.446;2024-03-23T04:09:14;6.40;99.90
10143;DHT22;5112;54.088;13.446;2024-03-23T04:19:16;6.30;99.90
10143;DHT22;5112;54.088;13.446;2024-03-23T04:29:19;6.30;99.90
10143;DHT22;5112;54.088;13.446;2024-03-23T04:39:21;6.30;99.90
10143;DHT22;5112;54.088;13.446;2024-03-23T04:49:24;6.20;99.90
10143;DHT22;5112;54.088;13.446;2024-03-23T04:59:25;6.10;99.90
10143;DHT22;5112;54.088;13.446;2024-03-23T05:09:28;6.10;99.90
10143;DHT22;5112;54.088;13.446;2024-03-23T05:19:31;5.90;99.90
10143;DHT22;5112;54.088;13.446;2024-03-23T05:29:34;5.80;99.90
10143;DHT22;5112;54.088;13.446;2024-03-23T05:39:36;5.80;99.90
10143;DHT22;5112;54.088;13.446;2024-03-23T05:49:39;5.80;99.90
10143;DHT22;5112;54.088;13.446;2024-03-23T05:59:42;5.90;99.90
10143;DHT22;5112;54.088;13.446;2024-03-23T06:09:45;5.90;99.90
10143;DHT22;5112;54.088;13.446;2024-03-23T06:19:46;6.00;99.90
10143;DHT22;5112;54.088;13.446;2024-03-23T06:29:49;6.10;99.90
10143;DHT22;5112;54.088;13.446;2024-03-23T06:39:51;6.30;99.90
10143;DHT22;5112;54.088;13.446;2024-03-23T06:49:54;6.50;99.90
10143;DHT22;5112;54.088;13.446;2024-03-23T06:59:56;6.80;99.90
10143;DHT22;5112;54.088;13.446;2024-03-23T07:09:59;7.10;99.90
10143;DHT22;5112;54.088;13.446;2024-03-23T07:20:00;7.30;99.90
10143;DHT22;5112;54.088;13.446;2024-03-23T07:30:07;7.50;99.90
10143;DHT22;5112;54.088;13.446;2024-03-23T07:40:09;7.80;99.90
10143;DHT22;5112;54.088;13.446;2024-03-23T07:50:13;7.90;99.90
10143;DHT22;5112;54.088;13.446;2024-03-23T08:00:15;7.70;99.90
10143;DHT22;5112;54.088;13.446;2024-03-23T08:10:18;7.70;99.90
10143;DHT22;5112;54.088;13.446;2024-03-23T08:20:20;7.90;99.90
10143;DHT22;5112;54.088;13.446;2024-03-23T08:30:23;7.90;99.90
10143;DHT22;5112;54.088;13.446;2024-03-23T08:40:25;8.10;99.90
10143;DHT22;5112;54.088;13.446;2024-03-23T08:50:28;8.30;99.90
10143;DHT22;5112;54.088;13.446;2024-03-23T09:00:31;8.60;99.90
10143;DHT22;5112;54.088;13.446;2024-03-23T09:10:38;8.70;99.90
10143;DHT22;5112;54.088;13.446;2024-03-23T09:20:40;8.40;99.90
10143;DHT22;5112;54.088;13.446;2024-03-23T09:30:43;8.50;99.90
10143;DHT22;5112;54.088;13.446;2024-03-23T09:40:45;8.70;99.90
10143;DHT22;5112;54.088;13.446;2024-03-23T09:50:48;9.10;99.90
10143;DHT22;5112;54.088;13.446;2024-03-23T10:00:50;9.20;99.90
10143;DHT22;5112;54.088;13.446;2024-03-23T10:10:53;9.40;99.90
10143;DHT22;5112;54.088;13.446;2024-03-23T10:21:07;9.80;99.90
10143;DHT22;5112;54.088;13.446;2024-03-23T10:31:11;10.00;99.90
10143;DHT22;5112;54.088;13.446;2024-03-23T10:41:13;9.60;99.90
10143;DHT22;5112;54.088;13.446;2024-03-23T10:51:16;9.50;99.90
10143;DHT22;5112;54.088;13.446;2024-03-23T11:01:18;9.30;99.90
10143;DHT22;5112;54.088;13.446;2024-03-23T11:11:21;9.90;99.90
10143;DHT22;5112;54.088;13.446;2024-03-23T11:21:52;9.80;99.90
10143;DHT22;5112;54.088;13.446;2024-03-23T11:31:55;9.90;99.90
10143;DHT22;5112;54.088;13.446;2024-03-23T11:41:57;10.00;99.90
10143;DHT22;5112;54.088;13.446;2024-03-23T11:52:00;10.00;99.90
10143;DHT22;5112;54.088;13.446;2024-03-23T12:02:06;10.50;99.90
10143;DHT22;5112;54.088;13.446;2024-03-23T12:12:14;11.10;99.90
10143;DHT22;5112;54.088;13.446;2024-03-23T12:22:20;11.40;99.90
10143;DHT22;5112;54.088;13.446;2024-03-23T12:32:23;11.20;99.90
10143;DHT22;5112;54.088;13.446;2024-03-23T12:42:25;10.90;99.90
10143;DHT22;5112;54.088;13.446;2024-03-23T12:52:28;11.80;99.90
10143;DHT22;5112;54.088;13.446;2024-03-23T13:02:30;11.60;99.90
10143;DHT22;5112;54.088;13.446;2024-03-23T13:12:33;11.10;99.90
10143;DHT22;5112;54.088;13.446;2024-03-23T13:22:34;10.50;99.90
10143;DHT22;5112;54.088;13.446;2024-03-23T13:32:37;10.20;99.90
10143;DHT22;5112;54.088;13.446;2024-03-23T13:42:39;11.60;99.90
10143;DHT22;5112;54.088;13.446;2024-03-23T13:52:42;12.10;99.90
10143;DHT22;5112;54.088;13.446;2024-03-23T14:02:44;11.30;99.90
10143;DHT22;5112;54.088;13.446;2024-03-23T14:12:46;9.80;99.90
10143;DHT22;5112;54.088;13.446;2024-03-23T14:22:48;9.10;99.90
10143;DHT22;5112;54.088;13.446;2024-03-23T14:32:51;8.80;99.90
10143;DHT22;5112;54.088;13.446;2024-03-23T14:42:53;8.60;99.90
10143;DHT22;5112;54.088;13.446;2024-03-23T14:52:56;8.70;99.90
10143;DHT22;5112;54.088;13.446;2024-03-23T15:02:57;9.20;99.90
10143;DHT22;5112;54.088;13.446;2024-03-23T15:13:00;8.90;99.90
10143;DHT22;5112;54.088;13.446;2024-03-23T15:23:02;8.80;99.90
10143;DHT22;5112;54.088;13.446;2024-03-23T15:33:05;8.70;99.90
10143;DHT22;5112;54.088;13.446;2024-03-23T15:43:07;8.30;99.90
10143;DHT22;5112;54.088;13.446;2024-03-23T15:53:10;8.40;99.90
10143;DHT22;5112;54.088;13.446;2024-03-23T16:03:12;8.50;99.90
10143;DHT22;5112;54.088;13.446;2024-03-23T16:13:16;8.30;99.90
10143;DHT22;5112;54.088;13.446;2024-03-23T16:23:18;8.10;99.90
10143;DHT22;5112;54.088;13.446;2024-03-23T16:33:21;8.00;99.90
10143;DHT22;5112;54.088;13.446;2024-03-23T16:43:23;7.90;99.90
10143;DHT22;5112;54.088;13.446;2024-03-23T16:53:27;8.00;99.90
10143;DHT22;5112;54.088;13.446;2024-03-23T17:03:30;8.20;99.90
10143;DHT22;5112;54.088;13.446;2024-03-23T17:13:33;7.80;99.90
10143;DHT22;5112;54.088;13.446;2024-03-23T17:23:35;7.60;99.90
10143;DHT22;5112;54.088;13.446;2024-03-23T17:33:38;7.30;99.90
10143;DHT22;5112;54.088;13.446;2024-03-23T17:43:40;7.00;99.90
10143;DHT22;5112;54.088;13.446;2024-03-23T17:53:43;6.80;99.90
10143;DHT22;5112;54.088;13.446;2024-03-23T18:03:44;6.70;99.90
10143;DHT22;5112;54.088;13.446;2024-03-23T18:13:47;6.40;99.90
10143;DHT22;5112;54.088;13.446;2024-03-23T18:23:49;6.30;99.90
10143;DHT22;5112;54.088;13.446;2024-03-23T18:33:52;6.10;99.90
10143;DHT22;5112;54.088;13.446;2024-03-23T18:43:54;5.90;99.90
10143;DHT22;5112;54.088;13.446;2024-03-23T18:53:57;5.80;99.90
10143;DHT22;5112;54.088;13.446;2024-03-23T19:04:02;5.70;99.90
10143;DHT22;5112;54.088;13.446;2024-03-23T19:14:05;5.80;99.90
10143;DHT22;5112;54.088;13.446;2024-03-23T19:24:07;5.70;99.90
10143;DHT22;5112;54.088;13.446;2024-03-23T19:34:10;5.40;99.90
10143;DHT22;5112;54.088;13.446;2024-03-23T19:44:12;5.40;99.90
10143;DHT22;5112;54.088;13.446;2024-03-23T19:54:15;5.30;99.90
10143;DHT22;5112;54.088;13.446;2024-03-23T20:04:16;5.10;99.90
10143;DHT22;5112;54.088;13.446;2024-03-23T20:14:20;5.00;99.90
10143;DHT22;5112;54.088;13.446;2024-03-23T20:24:21;4.90;99.90
10143;DHT22;5112;54.088;13.446;2024-03-23T20:34:24;4.90;99.90
10143;DHT22;5112;54.088;13.446;2024-03-23T20:44:26;4.80;99.90
10143;DHT22;5112;54.088;13.446;2024-03-23T20:54:29;4.70;99.90
10143;DHT22;5112;54.088;13.446;2024-03-23T21:04:30;4.60;99.90
10143;DHT22;5112;54.088;13.446;2024-03-23T21:14:33;4.50;99.90
10143;DHT22;5112;54.088;13.446;2024-03-23T21:24:35;4.50;99.90
10143;DHT22;5112;54.088;13.446;2024-03-23T21:34:38;4.50;99.90
10143;DHT22;5112;54.088;13.446;2024-03-23T21:44:40;4.50;99.90
10143;DHT22;5112;54.088;13.446;2024-03-23T21:54:43;4.50;99.90
10143;DHT22;5112;54.088;13.446;2024-03-23T22:04:44;4.50;99.90
10143;DHT22;5112;54.088;13.446;2024-03-23T22:14:48;4.50;99.90
10143;DHT22;5112;54.088;13.446;2024-03-23T22:24:50;4.50;99.90
10143;DHT22;5112;54.088;13.446;2024-03-23T22:34:53;4.40;99.90
10143;DHT22;5112;54.088;13.446;2024-03-23T22:44:55;4.40;99.90
10143;DHT22;5112;54.088;13.446;2024-03-23T22:54:58;4.30;99.90
10143;DHT22;5112;54.088;13.446;2024-03-23T23:04:59;4.40;99.90
10143;DHT22;5112;54.088;13.446;2024-03-23T23:15:03;4.30;99.90
10143;DHT22;5112;54.088;13.446;2024-03-23T23:25:05;4.30;99.90
10143;DHT22;5112;54.088;13.446;2024-03-23T23:35:08;4.20;99.90
10143;DHT22;5112;54.088;13.446;2024-03-23T23:45:10;4.10;99.90
10143;DHT22;5112;54.088;13.446;2024-03-23T23:55:13;4.10;99.90
